Sonic Adventure (DX): Time Rankings

Records: Times | Rings | Scores | Races | Bosses | Freestyle
Leaders: Times | Rings | Scores | Races | Bosses | Freestyle | Overall
Rank Player Percent Points Date
1 Sonicspeedruner 99.0% 47 03-02-15
2 Gamepro011 98.5% 73 03-02-15
3 Jawzun 96.2% 191 03-02-15
4 Dashjump 94.2% 296 03-02-15
5 DarkPolarNight 93.6% 323 03-02-15
6 THC98 92.3% 393 03-02-15
7 F-Man 91.9% 414 03-02-15
8 ike6252 90.7% 474 03-02-15
9 francisco 90.4% 490 03-02-15
10 Avento128bits 90.4% 491 03-02-15
11 DarkspinesSonic 89.8% 517 03-02-15
12 Marth 89.6% 530 03-02-15
13 frankoredstrato 88.5% 586 03-02-15
14 Paragod 85.3% 751 03-02-15
15 HyperSonic7701 85.2% 753 03-02-15
16 chainchumper 84.7% 781 03-02-15
17 drminus 82.3% 902 03-02-15
17 InferSaime 82.3% 902 03-02-15
19 TheRealShadnic 82.1% 913 03-02-15
20 Stefan 80.8% 980 03-02-15
21 Redd 80.2% 1012 03-02-15
22 PfoSonic 80.0% 1021 03-02-15
23 Coolfansonic 78.5% 1096 03-02-15
24 bertin 78.3% 1107 03-02-15
25 yoshifan 77.9% 1130 03-02-15
26 TailsDash1999 77.5% 1151 03-02-15
27 Dave Cramer 76.1% 1221 03-02-15
28 RPGnutter 75.7% 1242 03-02-15
29 sonicam 73.9% 1332 03-02-15
30 Cybrax 73.9% 1335 03-02-15
31 Ring Rush 71.2% 1469 03-02-15
32 mike89 70.3% 1515 03-02-15
33 NintenDan 70.1% 1528 03-02-15
34 SkyLights 66.3% 1723 03-02-15
35 Combo 64.7% 1805 03-02-15
36 SADXTryHard 62.5% 1917 03-02-15
37 P1 Pause 61.9% 1946 03-02-15
38 Nimrod 60.9% 1998 03-02-15
39 Groudon199 59.9% 2050 03-02-15
40 Shadow Jacky 59.2% 2087 03-02-15
41 Dawid8404 59.1% 2090 03-02-15
42 VMU Player Banned 58.2% 2138 03-02-15
43 Thorn 57.9% 2152 03-02-15
44 SB737 56.6% 2216 03-02-15
44 The Knuckles Chao 56.6% 2216 03-02-15
46 SadisticMystic 56.3% 2235 03-02-15
47 Chao_Fan 56.2% 2237 03-02-15
48 Parax 56.0% 2247 03-02-15
49 KinkyCadence 55.4% 2277 03-02-15
50 Mastakirby 55.4% 2279 03-02-15
51 mauserman 55.3% 2283 03-02-15
52 OmegaDJ 55.2% 2289 03-02-15
53 Psyknux 55.1% 2296 03-02-15
54 LittleBigness 54.8% 2312 03-02-15
55 Auriman1 54.3% 2333 03-02-15
56 magnum12 54.3% 2334 03-02-15
57 Turbos 53.8% 2363 03-02-15
58 GerbilSoft 53.4% 2382 03-02-15
59 GreatStar 53.3% 2386 03-02-15
60 Webber3000 52.4% 2435 03-02-15
61 Hipertails12 51.9% 2460 03-02-15
62 James_Bertolli 49.2% 2598 03-02-15
63 Cream147 48.7% 2620 03-02-15
64 Skylace 48.4% 2639 03-02-15
65 welldooder64 48.2% 2645 03-02-15
66 Diamond 48.1% 2651 03-02-15
67 Omega Rafael Santos 48.0% 2660 03-02-15
68 Quartz 47.8% 2667 03-02-15
69 Psymar 47.5% 2682 03-02-15
70 SonicWinDX 46.3% 2745 03-02-15
70 teamblackarms 46.3% 2745 03-02-15
72 buddychaos0415 45.7% 2775 03-02-15
73 SilverSonic 45.4% 2791 03-02-15
74 Andrea Ritsu 44.6% 2830 03-02-15
75 itsPersonnal 44.4% 2840 03-02-15
76 SilvertheAlmighty 44.3% 2845 03-02-15
77 metanightmare22 43.4% 2892 03-02-15
78 lordmetalsonic 41.4% 2995 03-02-15
79 Arch 40.9% 3020 03-02-15
80 Termon 40.5% 3041 03-02-15
81 videogamemaster777 40.1% 3060 03-02-15
82 supersonicfan 39.7% 3082 03-02-15
83 Kanimayo_Jp 39.3% 3104 03-02-15
84 LilZero 38.7% 3136 03-02-15
84 paulie9990 38.7% 3136 03-02-15
86 FuzZerd 38.4% 3148 03-02-15
87 eggFL 37.8% 3180 03-02-15
88 Don 37.6% 3189 03-02-15
89 Siavash Tazari 36.4% 3251 03-02-15
90 Fr3nZy 36.3% 3254 03-02-15
91 Cod4Scopes 35.4% 3302 03-02-15
92 f0rever_zer0 35.2% 3311 03-02-15
93 Cyan Ryan 34.6% 3345 03-02-15
94 supersonic465 34.4% 3355 03-02-15
95 LinksDarkArrows 34.3% 3360 03-02-15
96 Austinf 34.2% 3366 03-02-15
97 Therio 34.0% 3374 03-02-15
98 danieldude 33.5% 3399 03-02-15
99 elecmouse101 33.3% 3412 03-02-15
100 Staf 33.1% 3421 03-02-15
101 MiStEr_ShAoLiN 32.8% 3433 03-02-15
102 BrokenArthritis 32.6% 3447 03-02-15
103 Xia 31.8% 3486 03-02-15
104 welshmoose05 31.3% 3513 03-02-15
105 Mcshuggets 30.2% 3570 03-02-15
106 The Great Lord Mick 30.1% 3573 03-02-15
107 Maxinfamily 29.8% 3589 03-02-15
108 Aitamen 29.5% 3602 03-02-15
109 videogamer1014 29.5% 3606 03-02-15
110 joecoolgames 29.4% 3611 03-02-15
111 Matt_TY 29.3% 3613 03-02-15
112 dabestgamer 29.1% 3623 03-02-15
113 imazor017 28.9% 3634 03-02-15
114 SuperSonic101 27.9% 3686 03-02-15
115 superjupi 27.8% 3691 03-02-15
116 Shadowthegreat 27.8% 3693 03-02-15
117 Hunters13 27.4% 3712 03-02-15
118 Rolken 27.2% 3720 03-02-15
119 SaviourDC 26.8% 3741 03-02-15
120 iarebored 26.7% 3746 03-02-15
121 sonamyfan666 26.6% 3755 03-02-15
122 Spinballwizard 26.4% 3761 03-02-15
123 SonicKnuckles 26.1% 3779 03-02-15
124 EngiNerd 25.3% 3820 03-02-15
125 adf 25.1% 3828 03-02-15
126 Megaman EXE565 24.6% 3854 03-02-15
127 The T 24.1% 3883 03-02-15
128 Game_Complete 23.9% 3891 03-02-15
129 Platformer 23.5% 3910 03-02-15
130 Sonic Singularity 23.5% 3911 03-02-15
131 Pokemonmaster888 23.3% 3920 03-02-15
132 SeaWolf 23.2% 3926 03-02-15
133 timpkmn89 22.9% 3941 03-02-15
134 Swift Hobo 22.7% 3950 03-02-15
135 Rickyman48 22.3% 3973 03-02-15
136 Sondow 22.2% 3977 03-02-15
137 FoxBoy 21.5% 4012 03-02-15
137 KitsuneYamaro 21.5% 4012 03-02-15
139 TFEC Headshot 21.3% 4025 03-02-15
140 Kogen Player Banned 21.0% 4041 03-02-15
141 Starlight Sable 20.1% 4083 03-02-15
142 IsisDazs 19.7% 4106 03-02-15
143 HyperSonic64 19.6% 4111 03-02-15
144 crazy1993 19.1% 4137 03-02-15
145 andres430 18.9% 4148 03-02-15
146 MPit08 17.6% 4212 03-02-15
146 SonicAD 17.6% 4212 03-02-15
148 sonicd5 17.4% 4223 03-02-15
149 dShadow 16.9% 4247 03-02-15
149 iSonicKid2K 16.9% 4247 03-02-15
151 Cutiefox 16.2% 4283 03-02-15
152 Chawkk 16.2% 4284 03-02-15
153 BigAL49 16.2% 4286 03-02-15
154 Miles9999 16.2% 4287 03-02-15
155 Monkeh 15.8% 4304 03-02-15
156 DaDude 15.5% 4318 03-02-15
157 Drflash55 15.3% 4330 03-02-15
158 Bass 14.8% 4358 03-02-15
159 Yish 14.7% 4363 03-02-15
160 neaolas 14.6% 4364 03-02-15
161 Cruizer 14.5% 4373 03-02-15
162 superiorsonic 14.5% 4374 03-02-15
163 UninspiredUsername 14.4% 4377 03-02-15
164 zapp 14.3% 4382 03-02-15
165 gamefreak1292 14.0% 4398 03-02-15
166 Cooljay 13.4% 4428 03-02-15
167 SonicU260 13.1% 4445 03-02-15
168 Chaos_Overlord 13.0% 4447 03-02-15
169 Valfore 12.5% 4472 03-02-15
170 GarnetPrincess 12.3% 4486 03-02-15
171 ShinigamiMachine 12.0% 4499 03-02-15
171 soniccoloursunleashed 12.0% 4499 03-02-15
173 Sonicsuperstar1 11.5% 4523 03-02-15
174 FocusSight64 11.2% 4542 03-02-15
175 booo95 11.1% 4548 03-02-15
176 SirTobbii 11.0% 4549 03-02-15
177 Werey 10.9% 4555 03-02-15
178 Mo Player Banned 10.6% 4569 03-02-15
179 sonicspeed 10.5% 4574 03-02-15
180 Venick409 9.9% 4605 03-02-15
181 Sithwarrior26 9.7% 4618 03-02-15
182 ingx24 9.3% 4638 03-02-15
183 CyberShadow 9.1% 4647 03-02-15
184 Fozer 8.8% 4661 03-02-15
185 Colomb_30 8.7% 4670 03-02-15
186 Regano1000 8.4% 4683 03-02-15
187 1stKirbyever 8.1% 4699 03-02-15
188 Brian_pso 7.8% 4715 03-02-15
189 nuckrieg 7.7% 4719 03-02-15
190 douglas 7.6% 4727 03-02-15
191 Th4tN1nj4Turtl3 7.5% 4730 03-02-15
192 TakaRikka 7.4% 4733 03-02-15
192 Zip 7.4% 4733 03-02-15
194 Mariosonic15 7.1% 4748 03-02-15
195 wheatrich 7.0% 4754 03-02-15
196 MStitomix 6.8% 4766 03-02-15
197 ieatatsonic 6.8% 4768 03-02-15
198 HermitHelmet 6.7% 4770 03-02-15
199 niscool 6.5% 4780 03-02-15
200 Got4n 6.4% 4784 03-02-15
200 Triseena 6.4% 4784 03-02-15
202 Cort_pso 6.4% 4786 03-02-15
203 Jose_15 6.1% 4801 03-02-15
204 a_moustache 6.0% 4804 03-02-15
205 Artie 6.0% 4809 03-02-15
206 BlankTH 5.9% 4811 03-02-15
207 Ace747 5.6% 4827 03-02-15
208 Richied 5.5% 4830 03-02-15
209 Paixii 5.3% 4844 03-02-15
210 BallzeH 5.0% 4859 03-02-15
210 slade23 5.0% 4859 03-02-15
212 FSSRandomvids 4.9% 4861 03-02-15
213 ArcticDragon 4.9% 4862 03-02-15
214 Mankster101 4.9% 4864 03-02-15
215 BecauseWarAnvil 4.8% 4867 03-02-15
215 PsyBorg 4.8% 4867 03-02-15
217 Jamixesa 4.8% 4868 03-02-15
218 Nickson98 4.6% 4876 03-02-15
219 Crydio 4.6% 4877 03-02-15
220 TheUltraBlur 4.5% 4885 03-02-15
221 ReuelBrony 4.4% 4888 03-02-15
222 stanski 4.3% 4894 03-02-15
223 MarewBFN 4.3% 4895 03-02-15
224 tal39h 4.2% 4899 03-02-15
225 knuckles_sonic8 4.0% 4909 03-02-15
226 p0ker 4.0% 4910 03-02-15
227 Blue Infamy 4.0% 4911 03-02-15
228 ErrortheCucco 3.8% 4920 03-02-15
229 Rikum22 3.7% 4923 03-02-15
230 sonic1001 3.6% 4931 03-02-15
230 TheChaosEmeraIds 3.6% 4931 03-02-15
232 syco1098 3.4% 4938 03-02-15
233 AJSIV 3.4% 4939 03-02-15
234 Sonic the Hedgehod16 3.4% 4941 03-02-15
235 Calfd 3.3% 4945 03-02-15
236 themachoman202 3.0% 4962 03-02-15
237 MK 2.9% 4964 03-02-15
238 Fivavoa 2.8% 4970 03-02-15
239 BlackArmsShadow 2.8% 4972 03-02-15
239 Mr. Jones 2.8% 4972 03-02-15
241 djmat 2.7% 4973 03-02-15
241 ptorflaxendrosis 2.7% 4973 03-02-15
243 arcfx1985 2.7% 4974 03-02-15
244 Sonique Hedgehog 2.6% 4978 03-02-15
245 FlandreScarlet9999vr 2.6% 4979 03-02-15
246 KaM Mark MaK 2.5% 4987 03-02-15
247 BeeAwwb 2.4% 4991 03-02-15
248 ShadouZaHejjihoggu 2.3% 4994 03-02-15
249 darkstarblaze 2.2% 5002 03-02-15
250 darkersupershadic 2.2% 5003 03-02-15
251 SpiritDragon1995 2.1% 5004 03-02-15
252 sonic29887 2.1% 5006 03-02-15
253 Sarger001 2.1% 5008 03-02-15
254 Grady219 2.0% 5009 03-02-15
255 Jawaah 2.0% 5013 03-02-15
256 shadowblast63 Player Banned 1.9% 5014 03-02-15
257 Antek 1.9% 5017 03-02-15
258 Klaus 1.8% 5019 03-02-15
259 BioShadow 1.7% 5024 03-02-15
260 SkyBon 1.5% 5038 03-02-15
261 Shanekilz 1.4% 5040 03-02-15
262 isaihtb11 1.3% 5045 03-02-15
263 OhNoes! 1.3% 5046 03-02-15
264 zaktu40 1.3% 5047 03-02-15
265 gaara1234 1.2% 5050 03-02-15
266 S-MS32X-S 1.2% 5051 03-02-15
267 MastaToken 1.1% 5057 03-02-15
268 Mister_Slick 1.0% 5061 03-02-15
269 Sonic06Fan 1.0% 5063 03-02-15
270 Rush Hero 1.0% 5064 03-02-15
271 SonicMega167 0.9% 5067 03-02-15
272 gamed00d 0.8% 5070 03-02-15
272 SilverK 0.8% 5070 03-02-15
274 oTaiIilLsS 0.8% 5072 03-02-15
275 Egor305 0.7% 5079 03-02-15
276 Burningskull123 0.5% 5086 03-02-15
277 Heroes_Hater 0.5% 5088 03-02-15
278 Sonicontherun 0.3% 5096 03-02-15
279 antiwwe 0.2% 5102 03-02-15
280 Iwannabelink 0.2% 5105 03-02-15
281 Genuine Hedgehog 0.1% 5106 03-02-15
282 dragondragon18 0.1% 5109 03-02-15
283 SonicK100 0.1% 5110 03-02-15
284 Tyrouble 0.0% 5115 03-02-15
285 LancexExWx 0.0% 5116 03-02-15
285 neji_hyuuga 0.0% 5116 03-02-15
285 Over 0.0% 5116 03-02-15
285 sdj6707 Player Banned 0.0% 5116 03-02-15
285 Tran Sonic Fan Player Banned 0.0% 5116 03-02-15

This page is using the New Data Table System. [FUTURE]

Game ID: 3 | Category ID: 1
Hits: 7,160 | Hits This Month: 6 | DB Calls: 24 | Mem Usage: 5.43 MB | Time: 0.22s | Printable

The Sonic Center v3.9
Copyright 2003-2011 by The Sonic Center Team.